Time;durP1;ratioP1;P1;durP2;ratioP2;P2;SDS_P1;SDS_P2;PMS_P1;PMS_P2;Temp;Humidity;BMP_temperature;BMP_pressure;BME280_temperature;BME280_humidity;BME280_pressure;Samples;Min_cycle;Max_cycle;Signal;HPM_P1;HPM_P2
2022/08/11 00:01:13;;;;;;;;;;;;;;;;;;5045999;28;19994;-59
2022/08/11 00:03:39;;;;;;;;;;;;;;;;;;5046861;28;20367;-59
2022/08/11 00:06:05;;;;;;;;;;;;;;;;;;5047039;28;19932;-59
2022/08/11 00:08:32;;;;;;;;;;;;;;;;;;5046638;28;19924;-59
2022/08/11 00:10:58;;;;;;;;;;;;;;;;;;5046820;28;19924;-59
2022/08/11 00:13:24;;;;;;;;;;;;;;;;;;5045982;28;19925;-59
2022/08/11 00:15:50;;;;;;;;;;;;;;;;;;5046865;28;19959;-59
2022/08/11 00:18:16;;;;;;;;;;;;;;;;;;5046263;28;20370;-59
2022/08/11 00:20:42;;;;;;;;;;;;;;;;;;5046043;28;19924;-59
2022/08/11 00:23:08;;;;;;;;;;;;;;;;;;5046998;28;19970;-59
2022/08/11 00:25:34;;;;;;;;;;;;;;;;;;5047127;28;20402;-59
2022/08/11 00:28:00;;;;;;;;;;;;;;;;;;5045652;28;19925;-59
2022/08/11 00:30:26;;;;;;;;;;;;;;;;;;5046086;28;19928;-59
2022/08/11 00:32:53;;;;;;;;;;;;;;;;;;5045888;28;19924;-59
2022/08/11 00:35:19;;;;;;;;;;;;;;;;;;5046147;28;19932;-59
2022/08/11 00:37:45;;;;;;;;;;;;;;;;;;5045877;28;19925;-59
2022/08/11 00:40:11;;;;;;;;;;;;;;;;;;5046077;28;19934;-59
2022/08/11 00:42:37;;;;;;;;;;;;;;;;;;5045995;28;20290;-58
2022/08/11 00:45:03;;;;;;;;;;;;;;;;;;5045626;28;19928;-59
2022/08/11 00:47:29;;;;;;;;;;;;;;;;;;5045584;28;19955;-59
2022/08/11 00:49:55;;;;;;;;;;;;;;;;;;5045889;28;19987;-59
2022/08/11 00:52:21;;;;;;;;;;;;;;;;;;5045901;28;19986;-59
2022/08/11 00:54:47;;;;;;;;;;;;;;;;;;5045972;28;20438;-59
2022/08/11 00:57:14;;;;;;;;;;;;;;;;;;5044361;28;19979;-59
2022/08/11 00:59:40;;;;;;;;;;;;;;;;;;5045689;28;19928;-59
2022/08/11 01:02:06;;;;;;;;;;;;;;;;;;5046311;28;19979;-59
2022/08/11 01:04:32;;;;;;;;;;;;;;;;;;5044893;28;20015;-59
2022/08/11 01:06:58;;;;;;;;;;;;;;;;;;5045143;28;20012;-59
2022/08/11 01:09:24;;;;;;;;;;;;;;;;;;5045454;28;20282;-58
2022/08/11 01:11:50;;;;;;;;;;;;;;;;;;5045792;28;19983;-59
2022/08/11 01:14:16;;;;;;;;;;;;;;;;;;5043717;28;20421;-59
2022/08/11 01:16:42;;;;;;;;;;;;;;;;;;5045322;28;19925;-59
2022/08/11 01:19:08;;;;;;;;;;;;;;;;;;5045303;28;19986;-59
2022/08/11 01:21:34;;;;;;;;;;;;;;;;;;5045772;28;19931;-59
2022/08/11 01:24:01;;;;;;;;;;;;;;;;;;5045147;28;19925;-59
2022/08/11 01:26:27;;;;;;;;;;;;;;;;;;5044852;28;19970;-59
2022/08/11 01:28:53;;;;;;;;;;;;;;;;;;5044644;28;19924;-60
2022/08/11 01:31:19;;;;;;;;;;;;;;;;;;5044355;28;19924;-59
2022/08/11 01:33:45;;;;;;;;;;;;;;;;;;5044892;28;19960;-59
2022/08/11 01:36:11;;;;;;;;;;;;;;;;;;5044270;28;19988;-60
2022/08/11 01:38:37;;;;;;;;;;;;;;;;;;5045654;28;19931;-59
2022/08/11 01:41:03;;;;;;;;;;;;;;;;;;5044992;28;19929;-59
2022/08/11 01:46:15;;;;;;;;;;;;;;;;;;5044476;28;20425;-60
2022/08/11 01:48:41;;;;;;;;;;;;;;;;;;5044913;28;19925;-60
2022/08/11 01:51:07;;;;;;;;;;;;;;;;;;5045013;28;19925;-59
2022/08/11 01:53:34;;;;;;;;;;;;;;;;;;5044635;28;19964;-59
2022/08/11 01:56:01;;;;;;;;;;;;;;;;;;5044751;28;20003;-59
2022/08/11 01:58:27;;;;;;;;;;;;;;;;;;5032459;28;20374;-59
2022/08/11 02:00:53;;;;;;;;;;;;;;;;;;5044770;28;20032;-59
2022/08/11 02:03:19;;;;;;;;;;;;;;;;;;5044160;28;19924;-59
2022/08/11 02:05:45;;;;;;;;;;;;;;;;;;5044595;28;19971;-59
2022/08/11 02:08:11;;;;;;;;;;;;;;;;;;5044206;28;20282;-59
2022/08/11 02:13:21;;;;;;;;;;;;;;;;;;5043404;28;19955;-59
2022/08/11 02:15:47;;;;;;;;;;;;;;;;;;5044735;28;19928;-59
2022/08/11 02:18:13;;;;;;;;;;;;;;;;;;5026618;28;20693;-59
2022/08/11 02:23:38;;;;;;;;;;;;;;;;;;5043917;28;19972;-59
2022/08/11 02:26:04;;;;;;;;;;;;;;;;;;5044668;28;19982;-59
2022/08/11 02:28:30;;;;;;;;;;;;;;;;;;5043622;28;19972;-59
2022/08/11 02:33:21;;;;;;;;;;;;;;;;;;5043952;28;20307;-59
2022/08/11 02:33:42;;;;;;;;;;;;;;;;;;5044183;28;19925;-60
2022/08/11 02:36:08;;;;;;;;;;;;;;;;;;5044126;28;20063;-59
2022/08/11 02:38:34;;;;;;;;;;;;;;;;;;5044095;28;19929;-59
2022/08/11 02:41:00;;;;;;;;;;;;;;;;;;5049537;28;19924;-59
2022/08/11 02:43:26;;;;;;;;;;;;;;;;;;5044576;28;19924;-59
2022/08/11 02:45:53;;;;;;;;;;;;;;;;;;5044163;28;19925;-60
2022/08/11 02:51:04;;;;;;;;;;;;;;;;;;5044606;28;20457;-60
2022/08/11 02:53:29;;;;;;;;;;;;;;;;;;5043879;28;19929;-59
2022/08/11 02:55:56;;;;;;;;;;;;;;;;;;5044345;28;19932;-60
2022/08/11 02:58:22;;;;;;;;;;;;;;;;;;5042348;28;19932;-59
2022/08/11 03:00:48;;;;;;;;;;;;;;;;;;5043754;28;19925;-60
2022/08/11 03:03:15;;;;;;;;;;;;;;;;;;5043650;28;20397;-60
2022/08/11 03:05:41;;;;;;;;;;;;;;;;;;5044142;28;19924;-60
2022/08/11 03:08:07;;;;;;;;;;;;;;;;;;5044369;28;19970;-59
2022/08/11 03:10:33;;;;;;;;;;;;;;;;;;5043183;28;19925;-59
2022/08/11 03:18:28;;;;;;;;;;;;;;;;;;5043840;28;19990;-59
2022/08/11 03:20:54;;;;;;;;;;;;;;;;;;5043910;28;19916;-60
2022/08/11 03:23:20;;;;;;;;;;;;;;;;;;5043641;28;20075;-59
2022/08/11 03:25:46;;;;;;;;;;;;;;;;;;5043697;28;19924;-59
2022/08/11 03:28:12;;;;;;;;;;;;;;;;;;5042289;28;19975;-59
2022/08/11 03:30:38;;;;;;;;;;;;;;;;;;5044198;28;20305;-59
2022/08/11 03:35:49;;;;;;;;;;;;;;;;;;5043475;28;20581;-59
2022/08/11 03:38:15;;;;;;;;;;;;;;;;;;5047164;28;19964;-59
2022/08/11 03:43:37;;;;;;;;;;;;;;;;;;5046125;28;19924;-59
2022/08/11 03:46:03;;;;;;;;;;;;;;;;;;5047697;28;19925;-59
2022/08/11 03:48:29;;;;;;;;;;;;;;;;;;5047199;28;19929;-60
2022/08/11 03:50:55;;;;;;;;;;;;;;;;;;5047062;28;19920;-59
2022/08/11 03:53:21;;;;;;;;;;;;;;;;;;5046732;28;19976;-59
2022/08/11 03:55:47;;;;;;;;;;;;;;;;;;5028740;28;20298;-59
2022/08/11 03:58:13;;;;;;;;;;;;;;;;;;5046098;28;19925;-59
2022/08/11 04:00:39;;;;;;;;;;;;;;;;;;5047176;28;19931;-61
2022/08/11 04:03:06;;;;;;;;;;;;;;;;;;5047163;28;20274;-59
2022/08/11 04:05:32;;;;;;;;;;;;;;;;;;5046507;28;19925;-59
2022/08/11 04:07:58;;;;;;;;;;;;;;;;;;5046432;28;20506;-59
2022/08/11 04:10:24;;;;;;;;;;;;;;;;;;5046785;28;20055;-59
2022/08/11 04:12:50;;;;;;;;;;;;;;;;;;5053249;28;19932;-59
2022/08/11 04:18:01;;;;;;;;;;;;;;;;;;5046799;28;20094;-59
2022/08/11 04:20:27;;;;;;;;;;;;;;;;;;5028414;28;20660;-59
2022/08/11 04:22:54;;;;;;;;;;;;;;;;;;5046056;28;20015;-59
2022/08/11 04:25:21;;;;;;;;;;;;;;;;;;5046048;28;20024;-59
2022/08/11 04:27:47;;;;;;;;;;;;;;;;;;5045261;28;19924;-59
2022/08/11 04:30:13;;;;;;;;;;;;;;;;;;5046047;28;19925;-60
2022/08/11 04:32:39;;;;;;;;;;;;;;;;;;5046357;28;19979;-60
2022/08/11 04:35:06;;;;;;;;;;;;;;;;;;5046860;28;19978;-59
2022/08/11 04:37:33;;;;;;;;;;;;;;;;;;5045867;28;20007;-59
2022/08/11 04:39:59;;;;;;;;;;;;;;;;;;5046374;28;20035;-59
2022/08/11 04:45:10;;;;;;;;;;;;;;;;;;5045934;28;19928;-60
2022/08/11 05:04:04;;;;;;;;;;;;;;;;;;5045535;28;20023;-59
2022/08/11 05:06:30;;;;;;;;;;;;;;;;;;5045498;28;19925;-59
2022/08/11 05:08:56;;;;;;;;;;;;;;;;;;5045700;28;19932;-59
2022/08/11 05:11:22;;;;;;;;;;;;;;;;;;5045025;28;19925;-62
2022/08/11 05:35:44;;;;;;;;;;;;;;;;;;5045132;28;20418;-59
2022/08/11 05:57:22;;;;;;;;;;;;;;;;;;5044100;28;19951;-59
2022/08/11 05:59:48;;;;;;;;;;;;;;;;;;5044343;28;19924;-59
2022/08/11 06:02:14;;;;;;;;;;;;;;;;;;5050562;28;20145;-59
2022/08/11 06:04:40;;;;;;;;;;;;;;;;;;5044504;28;19924;-59
2022/08/11 06:07:08;;;;;;;;;;;;;;;;;;5044512;28;20015;-59
2022/08/11 06:09:34;;;;;;;;;;;;;;;;;;5044789;28;19925;-59
2022/08/11 06:12:00;;;;;;;;;;;;;;;;;;5043806;28;19978;-60
2022/08/11 06:14:26;;;;;;;;;;;;;;;;;;5044357;28;19979;-59
2022/08/11 06:16:52;;;;;;;;;;;;;;;;;;5044156;28;19979;-59
2022/08/11 06:19:18;;;;;;;;;;;;;;;;;;5044404;28;20011;-59
2022/08/11 06:21:44;;;;;;;;;;;;;;;;;;5044701;28;20294;-60
2022/08/11 06:24:10;;;;;;;;;;;;;;;;;;5044118;28;19925;-60
2022/08/11 06:26:37;;;;;;;;;;;;;;;;;;5044145;28;19929;-59
2022/08/11 06:29:03;;;;;;;;;;;;;;;;;;5043773;28;19992;-59
2022/08/11 06:31:30;;;;;;;;;;;;;;;;;;5044032;28;19936;-59
2022/08/11 06:33:56;;;;;;;;;;;;;;;;;;5044494;28;19979;-60
2022/08/11 06:36:22;;;;;;;;;;;;;;;;;;5043512;28;20315;-55
2022/08/11 06:38:48;;;;;;;;;;;;;;;;;;5044489;28;19947;-59
2022/08/11 06:41:30;;;;;;;;;;;;;;;;;;5043065;28;19925;-59
2022/08/11 06:43:56;;;;;;;;;;;;;;;;;;5044200;28;19925;-58
2022/08/11 06:46:22;;;;;;;;;;;;;;;;;;5044027;28;19932;-59
2022/08/11 06:48:48;;;;;;;;;;;;;;;;;;5044087;28;19917;-59
2022/08/11 06:51:14;;;;;;;;;;;;;;;;;;5044219;28;20366;-59
2022/08/11 06:53:40;;;;;;;;;;;;;;;;;;5043888;28;19924;-59
2022/08/11 07:01:36;;;;;;;;;;;;;;;;;;5043825;28;20436;-60
2022/08/11 07:04:02;;;;;;;;;;;;;;;;;;5050627;28;20794;-60
2022/08/11 07:06:29;;;;;;;;;;;;;;;;;;5043203;28;19925;-60
2022/08/11 07:17:09;;;;;;;;;;;;;;;;;;5029394;28;20298;-66
2022/08/11 07:30:41;;;;;;;;;;;;;;;;;;5029057;28;20011;-61
2022/08/11 07:33:07;;;;;;;;;;;;;;;;;;5047772;28;20016;-61
2022/08/11 07:35:33;;;;;;;;;;;;;;;;;;5047294;28;19990;-61
2022/08/11 07:37:59;;;;;;;;;;;;;;;;;;5046830;28;19972;-61
2022/08/11 07:40:25;;;;;;;;;;;;;;;;;;5047072;28;19924;-61
2022/08/11 07:42:51;;;;;;;;;;;;;;;;;;5046286;28;19925;-61
2022/08/11 07:53:31;;;;;;;;;;;;;;;;;;5046928;28;20023;-62
2022/08/11 07:55:57;;;;;;;;;;;;;;;;;;5046460;28;20019;-63
2022/08/11 08:17:51;;;;;;;;;;;;;;;;;;5046714;28;19931;-63
2022/08/11 08:20:18;;;;;;;;;;;;;;;;;;5046073;28;20259;-62
2022/08/11 08:22:44;;;;;;;;;;;;;;;;;;5046224;28;20075;-63
2022/08/11 08:25:10;;;;;;;;;;;;;;;;;;5046652;28;20003;-64
2022/08/11 08:27:37;;;;;;;;;;;;;;;;;;5046194;28;20149;-64
2022/08/11 08:32:48;;;;;;;;;;;;;;;;;;5046049;28;19932;-63
2022/08/11 08:35:14;;;;;;;;;;;;;;;;;;5046004;28;19971;-64
2022/08/11 08:37:40;;;;;;;;;;;;;;;;;;5045956;28;19971;-64
2022/08/11 08:40:06;;;;;;;;;;;;;;;;;;5046527;28;19925;-64
2022/08/11 08:42:32;;;;;;;;;;;;;;;;;;5045144;28;19924;-63
2022/08/11 08:44:58;;;;;;;;;;;;;;;;;;5045900;28;19931;-64
2022/08/11 08:47:24;;;;;;;;;;;;;;;;;;5045981;28;20003;-64
2022/08/11 08:49:50;;;;;;;;;;;;;;;;;;5046153;28;20408;-64
2022/08/11 08:52:16;;;;;;;;;;;;;;;;;;5045248;28;19924;-64
2022/08/11 08:54:42;;;;;;;;;;;;;;;;;;5045890;28;20444;-64
2022/08/11 08:57:08;;;;;;;;;;;;;;;;;;5045405;28;19924;-64
2022/08/11 08:59:34;;;;;;;;;;;;;;;;;;5046242;28;20416;-64
2022/08/11 09:02:00;;;;;;;;;;;;;;;;;;5045651;28;19929;-63
2022/08/11 09:04:26;;;;;;;;;;;;;;;;;;5044924;28;19925;-64
2022/08/11 09:06:52;;;;;;;;;;;;;;;;;;5045319;28;20008;-64
2022/08/11 09:09:18;;;;;;;;;;;;;;;;;;5045314;28;19925;-64
2022/08/11 09:11:52;;;;;;;;;;;;;;;;;;5027242;28;19970;-63
2022/08/11 09:14:18;;;;;;;;;;;;;;;;;;5044948;28;19924;-64
2022/08/11 09:16:44;;;;;;;;;;;;;;;;;;5045757;28;19924;-63
2022/08/11 09:19:10;;;;;;;;;;;;;;;;;;5045318;28;19924;-64
2022/08/11 09:21:38;;;;;;;;;;;;;;;;;;5045430;28;19928;-64
2022/08/11 09:26:58;;;;;;;;;;;;;;;;;;5044670;28;20428;-64
2022/08/11 09:29:24;;;;;;;;;;;;;;;;;;5045350;28;19921;-64
2022/08/11 09:31:50;;;;;;;;;;;;;;;;;;5045256;28;19924;-64
2022/08/11 09:34:16;;;;;;;;;;;;;;;;;;5043891;28;20271;-64
2022/08/11 09:44:45;;;;;;;;;;;;;;;;;;5043905;28;20084;-64
2022/08/11 09:45:09;;;;;;;;;;;;;;;;;;5044179;28;19925;-64
2022/08/11 09:47:35;;;;;;;;;;;;;;;;;;5045295;28;19947;-64
2022/08/11 09:50:01;;;;;;;;;;;;;;;;;;5044668;28;19925;-63
2022/08/11 09:52:27;;;;;;;;;;;;;;;;;;5044578;28;20366;-64
2022/08/11 09:54:53;;;;;;;;;;;;;;;;;;5045028;28;19978;-63
2022/08/11 10:00:04;;;;;;;;;;;;;;;;;;5044750;28;20579;-63
2022/08/11 10:02:30;;;;;;;;;;;;;;;;;;5044107;28;19937;-63
2022/08/11 10:07:40;;;;;;;;;;;;;;;;;;5026615;28;20634;-64
2022/08/11 10:10:06;;;;;;;;;;;;;;;;;;5044715;28;19929;-64
2022/08/11 10:12:33;;;;;;;;;;;;;;;;;;5043460;28;19925;-64
2022/08/11 10:18:40;;;;;;;;;;;;;;;;;;5044576;28;19980;-64
2022/08/11 10:20:30;;;;;;;;;;;;;;;;;;5043473;28;19970;-64
2022/08/11 10:28:27;;;;;;;;;;;;;;;;;;5043888;28;19924;-64
2022/08/11 10:36:22;;;;;;;;;;;;;;;;;;5043722;28;20338;-64
2022/08/11 10:38:51;;;;;;;;;;;;;;;;;;5044191;28;20388;-64
2022/08/11 10:44:01;;;;;;;;;;;;;;;;;;5044103;28;20019;-64
2022/08/11 10:49:12;;;;;;;;;;;;;;;;;;5048143;28;20569;-64
2022/08/11 10:59:53;;;;;;;;;;;;;;;;;;5048032;28;19925;-64
2022/08/11 11:02:19;;;;;;;;;;;;;;;;;;5047244;28;19932;-64
2022/08/11 11:04:46;;;;;;;;;;;;;;;;;;5047984;28;19925;-64
2022/08/11 11:07:13;;;;;;;;;;;;;;;;;;5047371;28;19970;-64
2022/08/11 11:09:39;;;;;;;;;;;;;;;;;;5047903;28;19924;-64
2022/08/11 11:20:19;;;;;;;;;;;;;;;;;;5047359;28;20023;-64
2022/08/11 11:22:51;;;;;;;;;;;;;;;;;;5047742;28;19925;-64
2022/08/11 11:25:17;;;;;;;;;;;;;;;;;;5046842;28;19924;-64
2022/08/11 11:27:43;;;;;;;;;;;;;;;;;;5046840;28;19921;-64
2022/08/11 11:30:09;;;;;;;;;;;;;;;;;;5047598;28;19928;-64
2022/08/11 11:32:35;;;;;;;;;;;;;;;;;;5047735;28;19977;-64
2022/08/11 11:35:01;;;;;;;;;;;;;;;;;;5047422;28;20328;-64
2022/08/11 11:37:27;;;;;;;;;;;;;;;;;;5046608;28;19931;-64
2022/08/11 11:39:53;;;;;;;;;;;;;;;;;;5047678;28;19925;-63
2022/08/11 11:42:19;;;;;;;;;;;;;;;;;;5046180;28;20394;-64
2022/08/11 11:44:45;;;;;;;;;;;;;;;;;;5047217;28;19925;-64
2022/08/11 11:47:11;;;;;;;;;;;;;;;;;;5047313;28;19925;-64
2022/08/11 11:49:39;;;;;;;;;;;;;;;;;;5047304;28;19948;-63
2022/08/11 11:52:05;;;;;;;;;;;;;;;;;;5047255;28;19933;-63
2022/08/11 11:54:32;;;;;;;;;;;;;;;;;;5046621;28;19932;-59
2022/08/11 12:01:14;;;;;;;;;;;;;;;;;;5044995;28;19925;-59
2022/08/11 12:02:29;;;;;;;;;;;;;;;;;;5046728;28;20015;-58
2022/08/11 12:04:55;;;;;;;;;;;;;;;;;;5046492;28;20083;-58
2022/08/11 12:10:05;;;;;;;;;;;;;;;;;;5046913;28;20067;-61
2022/08/11 12:15:18;;;;;;;;;;;;;;;;;;5046036;28;19979;-62
2022/08/11 12:17:44;;;;;;;;;;;;;;;;;;5046420;28;19925;-62
2022/08/11 12:20:10;;;;;;;;;;;;;;;;;;5045935;28;20333;-62
2022/08/11 12:28:05;;;;;;;;;;;;;;;;;;5046348;28;20294;-62
2022/08/11 12:30:31;;;;;;;;;;;;;;;;;;5046398;28;20380;-62
2022/08/11 12:32:58;;;;;;;;;;;;;;;;;;5046279;28;20011;-62
2022/08/11 12:35:24;;;;;;;;;;;;;;;;;;5046322;28;20359;-62
2022/08/11 12:37:50;;;;;;;;;;;;;;;;;;5045958;28;19928;-62
2022/08/11 12:45:45;;;;;;;;;;;;;;;;;;5045828;28;19957;-62
2022/08/11 12:53:40;;;;;;;;;;;;;;;;;;5046189;28;19947;-62
2022/08/11 12:58:51;;;;;;;;;;;;;;;;;;5046195;28;19925;-62
2022/08/11 13:06:46;;;;;;;;;;;;;;;;;;5045143;28;19987;-62
2022/08/11 13:09:14;;;;;;;;;;;;;;;;;;5043799;28;22233;-62
2022/08/11 13:14:25;;;;;;;;;;;;;;;;;;5044849;28;19947;-62
2022/08/11 13:19:36;;;;;;;;;;;;;;;;;;5046245;28;20378;-62
2022/08/11 13:22:06;;;;;;;;;;;;;;;;;;5044948;28;19968;-62
2022/08/11 13:24:33;;;;;;;;;;;;;;;;;;5045170;28;19940;-62
2022/08/11 13:26:59;;;;;;;;;;;;;;;;;;5044825;28;20166;-61
2022/08/11 13:29:25;;;;;;;;;;;;;;;;;;5045393;28;20035;-60
2022/08/11 13:31:51;;;;;;;;;;;;;;;;;;5045309;28;20031;-61
2022/08/11 13:34:17;;;;;;;;;;;;;;;;;;5044307;28;19925;-61
2022/08/11 13:36:43;;;;;;;;;;;;;;;;;;5044906;28;20378;-61
2022/08/11 13:39:09;;;;;;;;;;;;;;;;;;5045103;28;19924;-61
2022/08/11 13:41:37;;;;;;;;;;;;;;;;;;5044785;28;19932;-61
2022/08/11 13:44:03;;;;;;;;;;;;;;;;;;5045177;28;20030;-61
2022/08/11 13:46:29;;;;;;;;;;;;;;;;;;5044178;28;19998;-61
2022/08/11 13:48:55;;;;;;;;;;;;;;;;;;5044832;28;20003;-61
2022/08/11 13:51:32;;;;;;;;;;;;;;;;;;5045080;28;19924;-61
2022/08/11 13:53:58;;;;;;;;;;;;;;;;;;5044846;28;19939;-61
2022/08/11 13:56:24;;;;;;;;;;;;;;;;;;5043572;28;19939;-61
2022/08/11 13:58:50;;;;;;;;;;;;;;;;;;5045093;28;19924;-61
2022/08/11 14:01:16;;;;;;;;;;;;;;;;;;5044331;28;19929;-61
2022/08/11 14:03:42;;;;;;;;;;;;;;;;;;5044557;28;19931;-61
2022/08/11 14:06:08;;;;;;;;;;;;;;;;;;5044797;28;20294;-61
2022/08/11 14:08:35;;;;;;;;;;;;;;;;;;5045047;28;19940;-61
2022/08/11 14:13:45;;;;;;;;;;;;;;;;;;5044563;28;19928;-61
2022/08/11 14:16:27;;;;;;;;;;;;;;;;;;5044172;28;19958;-61
2022/08/11 14:18:53;;;;;;;;;;;;;;;;;;5044422;28;19929;-61
2022/08/11 14:24:04;;;;;;;;;;;;;;;;;;5044688;28;19925;-61
2022/08/11 14:26:35;;;;;;;;;;;;;;;;;;5043370;28;19925;-61
2022/08/11 14:29:01;;;;;;;;;;;;;;;;;;5044581;28;20359;-61
2022/08/11 14:31:27;;;;;;;;;;;;;;;;;;5044141;28;20039;-61
2022/08/11 14:33:53;;;;;;;;;;;;;;;;;;5043747;28;19924;-61
2022/08/11 14:36:19;;;;;;;;;;;;;;;;;;5043867;28;19925;-62
2022/08/11 14:38:45;;;;;;;;;;;;;;;;;;5044588;28;19925;-61
2022/08/11 14:49:25;;;;;;;;;;;;;;;;;;5044184;28;20402;-62
2022/08/11 14:51:53;;;;;;;;;;;;;;;;;;5044125;28;19979;-62
2022/08/11 14:57:04;;;;;;;;;;;;;;;;;;5043248;28;19925;-61
2022/08/11 14:59:30;;;;;;;;;;;;;;;;;;5043707;28;19917;-61
2022/08/11 15:04:40;;;;;;;;;;;;;;;;;;5043567;28;20306;-61
2022/08/11 15:07:06;;;;;;;;;;;;;;;;;;5044325;28;19924;-61
2022/08/11 15:09:32;;;;;;;;;;;;;;;;;;5043906;28;19925;-61
2022/08/11 15:12:08;;;;;;;;;;;;;;;;;;5043516;28;20608;-61
2022/08/11 15:17:18;;;;;;;;;;;;;;;;;;5043939;28;19925;-61
2022/08/11 15:25:15;;;;;;;;;;;;;;;;;;5043408;28;19925;-61
2022/08/11 15:38:40;;;;;;;;;;;;;;;;;;5047485;28;19972;-60
2022/08/11 15:46:35;;;;;;;;;;;;;;;;;;5046999;28;19933;-60
2022/08/11 15:49:01;;;;;;;;;;;;;;;;;;5047667;28;19929;-60
2022/08/11 15:51:27;;;;;;;;;;;;;;;;;;5047264;28;19925;-60
2022/08/11 15:53:53;;;;;;;;;;;;;;;;;;5046949;28;20027;-60
2022/08/11 15:56:19;;;;;;;;;;;;;;;;;;5045971;28;20310;-60
2022/08/11 16:04:14;;;;;;;;;;;;;;;;;;5045946;28;19925;-60
2022/08/11 16:06:40;;;;;;;;;;;;;;;;;;5046721;28;19924;-61
2022/08/11 16:09:06;;;;;;;;;;;;;;;;;;5047259;28;19931;-60
2022/08/11 16:11:32;;;;;;;;;;;;;;;;;;5045775;28;19932;-60
2022/08/11 16:16:43;;;;;;;;;;;;;;;;;;5046560;28;19925;-60
2022/08/11 16:19:09;;;;;;;;;;;;;;;;;;5046273;28;19932;-62
2022/08/11 16:21:35;;;;;;;;;;;;;;;;;;5047021;28;20000;-60
2022/08/11 16:24:01;;;;;;;;;;;;;;;;;;5047229;28;20426;-60
2022/08/11 16:26:27;;;;;;;;;;;;;;;;;;5045101;28;19932;-60
2022/08/11 16:28:53;;;;;;;;;;;;;;;;;;5047198;28;19931;-61
2022/08/11 16:31:19;;;;;;;;;;;;;;;;;;5046951;28;19972;-60
2022/08/11 16:33:45;;;;;;;;;;;;;;;;;;5047510;28;19929;-60
2022/08/11 16:38:56;;;;;;;;;;;;;;;;;;5046997;28;20670;-61
2022/08/11 16:46:58;;;;;;;;;;;;;;;;;;5047202;28;20389;-62
2022/08/11 16:49:24;;;;;;;;;;;;;;;;;;5047238;28;20058;-62
2022/08/11 16:51:50;;;;;;;;;;;;;;;;;;5046861;28;20012;-62
2022/08/11 16:54:16;;;;;;;;;;;;;;;;;;5046741;28;20284;-61
2022/08/11 16:56:42;;;;;;;;;;;;;;;;;;5045643;28;19925;-61
2022/08/11 16:59:14;;;;;;;;;;;;;;;;;;5047346;28;19925;-61
2022/08/11 17:01:40;;;;;;;;;;;;;;;;;;5046831;28;19987;-62
2022/08/11 17:16:05;;;;;;;;;;;;;;;;;;5046147;28;19924;-61
2022/08/11 17:17:58;;;;;;;;;;;;;;;;;;5045856;28;19925;-61
2022/08/11 17:20:24;;;;;;;;;;;;;;;;;;5044848;28;19939;-61
2022/08/11 17:25:35;;;;;;;;;;;;;;;;;;5045909;28;19925;-61
2022/08/11 17:28:01;;;;;;;;;;;;;;;;;;5046426;28;19928;-61
2022/08/11 17:35:27;;;;;;;;;;;;;;;;;;5045415;28;19920;-61
2022/08/11 17:36:12;;;;;;;;;;;;;;;;;;5045097;28;19928;-61
2022/08/11 17:38:38;;;;;;;;;;;;;;;;;;5046405;28;19932;-60
2022/08/11 17:49:19;;;;;;;;;;;;;;;;;;5028106;28;19925;-61
2022/08/11 18:00:06;;;;;;;;;;;;;;;;;;5045648;28;20431;-61
2022/08/11 18:05:18;;;;;;;;;;;;;;;;;;5044513;28;19925;-61
